Buoy 46533

sailwx.info

Track history (hours):
 
Tides and Currents Weather Stations Pressure Air Temp Water Temp Dewpoint Dewpoint Depression Visibility Wind Speed Wind Dir Waves Ship Positions

Drifting buoy 46533

Last reported at 2016-Apr-11 15:00 UTC. Time now 2016-Aug-30 09:04 UTC.
Position N 56°04' W 156°41'.
Warning: this ship's position is months out of date.

Water temperature 3.8 ° C

Date/timePositionNaut miles runAvg speedWind from/ knotsBaromVisibWave heightAir tempDewpointWater temp
2016-Apr-11 15:00N 56°04' W 156°41'0 0.0 3.8
2016-Apr-11 14:00N 56°04' W 156°41'0 0.0 4.2
2016-Apr-11 13:00N 56°04' W 156°41'0 0.0 4.4
2016-Apr-11 12:00N 56°04' W 156°41'0 0.0 4.1
2016-Apr-11 11:00N 56°04' W 156°41'0 0.0 4.1
2016-Apr-11 06:00N 56°04' W 156°41'0 0.0 4.4
2016-Apr-11 04:00N 56°04' W 156°41'0 0.0 5.5
2016-Apr-11 03:00N 56°04' W 156°41'0 0.0 6.5
2016-Apr-11 02:00N 56°04' W 156°41'0 0.0 7.8
2016-Apr-10 23:00N 56°04' W 156°41'0 0.0 9.0
2016-Apr-10 21:00N 56°04' W 156°41'0 0.0 10.9
2016-Apr-10 17:00N 56°04' W 156°41'0 0.0 3.6
2016-Apr-10 16:00N 56°04' W 156°41'0 0.0 3.3
2016-Apr-10 14:00N 56°04' W 156°41'0 0.0 4.2
2016-Apr-10 12:00N 56°04' W 156°41'0 0.0 4.7
2016-Apr-10 11:00N 56°04' W 156°41'0 0.0 4.2
2016-Apr-10 06:00N 56°04' W 156°41'0 0.0 4.9
2016-Apr-10 05:00N 56°04' W 156°41'0 0.0 5.2
2016-Apr-10 03:00N 56°04' W 156°41'0 0.0 5.6
2016-Apr-10 01:00N 56°04' W 156°41'0 0.0 6.3
2016-Apr-10 00:00N 56°04' W 156°41'0 0.0 6.3
2016-Apr-09 23:00N 56°04' W 156°41'0 0.0 5.6
2016-Apr-09 22:00N 56°04' W 156°41'0 0.0 5.7
2016-Apr-09 13:00N 56°04' W 156°41'0 0.0 5.3
2016-Apr-09 12:00N 56°04' W 156°41'0 0.0 5.6
2016-Apr-09 11:00N 56°04' W 156°41'0 0.0 4.7
2016-Apr-09 06:00N 56°04' W 156°41'0 0.0 4.8
2016-Apr-09 05:00N 56°04' W 156°41'0 0.0 5.3
2016-Apr-09 03:00N 56°04' W 156°41'0 0.0 5.7
2016-Apr-09 01:00N 56°04' W 156°41'0 0.0 6.6
2016-Apr-09 00:00N 56°04' W 156°41'0 0.1 7.5
2016-Apr-08 20:00N 56°04' W 156°41'1 0.1 5.5
2016-Apr-08 15:00N 56°04' W 156°41'0 0.0 4.0
2016-Apr-08 14:00N 56°04' W 156°41'0 0.0 4.2
2016-Apr-08 12:00N 56°04' W 156°41'0 0.0 4.2
2016-Apr-08 07:00N 56°04' W 156°41'0 0.0 5.3
2016-Apr-08 06:00N 56°04' W 156°41'0 0.0 6.1
2016-Apr-08 04:00N 56°04' W 156°41'0 0.0 7.0
2016-Apr-08 03:00N 56°04' W 156°41'0 0.0 7.6
2016-Apr-08 01:00N 56°04' W 156°41'0 0.0 9.5
2016-Apr-08 00:00N 56°04' W 156°41'0 0.0 10.0
2016-Apr-07 23:00N 56°04' W 156°41'0 0.0 15.2
2016-Apr-07 16:00N 56°04' W 156°41'0 0.1 4.3
2016-Apr-07 14:00N 56°04' W 156°41'0 0.0 4.3
2016-Apr-07 12:00N 56°04' W 156°41'0 0.0 5.0
2016-Apr-07 07:00N 56°04' W 156°41'0 0.0 5.9
2016-Apr-07 06:00N 56°04' W 156°41'0 0.0 6.1
2016-Apr-07 03:00N 56°04' W 156°41'0 0.0 7.4
2016-Apr-07 02:00N 56°04' W 156°41'0 0.0 7.8
2016-Apr-07 00:00N 56°04' W 156°41'0 0.0 8.6
2016-Apr-06 23:00N 56°04' W 156°41'0 0.0 8.9
2016-Apr-06 15:00N 56°04' W 156°41'0 0.0 3.0
2016-Apr-06 13:00N 56°04' W 156°41'0 0.0 2.8
2016-Apr-06 06:00N 56°04' W 156°41'0 0.0 4.6
2016-Apr-06 03:00N 56°04' W 156°41'0 0.0 7.4
2016-Apr-06 02:00N 56°04' W 156°41'0 0.0 7.9
2016-Apr-05 19:00N 56°04' W 156°41'0 0.0 5.6
2016-Apr-05 18:00N 56°04' W 156°41'0 0.0 6.1
2016-Apr-05 14:00N 56°04' W 156°41'0 0.0 4.2
2016-Apr-05 11:00N 56°04' W 156°41'0 0.0 4.5
2016-Apr-05 08:00N 56°04' W 156°41'0 0.0 4.9
2016-Apr-05 07:00N 56°04' W 156°41'0 0.0 4.9
2016-Apr-05 05:00N 56°04' W 156°41'0 0.0 5.3
2016-Apr-05 03:00N 56°04' W 156°41'0 0.0 5.8
2016-Apr-05 02:00N 56°04' W 156°41'0 0.0 6.0
2016-Apr-04 18:00N 56°04' W 156°41'0 0.0 4.6
2016-Apr-04 17:00N 56°04' W 156°41'0 0.0 4.5
2016-Apr-04 15:00N 56°04' W 156°41'0 0.0 4.4
2016-Apr-04 14:00N 56°04' W 156°41'0 0.0 4.3
2016-Apr-04 13:00N 56°04' W 156°41'0 0.1 4.6
2016-Apr-04 11:00N 56°04' W 156°41'0 0.0 4.8
2016-Apr-04 05:00N 56°04' W 156°41'0 0.1 5.1
2016-Apr-04 02:00N 56°04' W 156°41'1 0.1 5.3
2016-Apr-03 17:00N 56°03' W 156°40'1 0.3 5.1
2016-Apr-03 15:00N 56°04' W 156°41'0 0.0 5.2
2016-Apr-03 01:00N 56°04' W 156°41'0 0.0 5.8
2016-Apr-02 23:00N 56°04' W 156°41'0 0.4 5.4
2016-Apr-02 22:00N 56°04' W 156°41'0 0.0 5.4
2016-Apr-02 21:00N 56°04' W 156°41'0 0.4 5.2
2016-Apr-02 20:00N 56°04' W 156°41'0 0.0 4.9
2016-Apr-02 15:00N 56°04' W 156°41'1 0.8 4.0
2016-Apr-02 14:00N 56°03' W 156°40'1 0.9 3.8
2016-Apr-02 13:00N 56°04' W 156°41'0 0.0 3.6
2016-Apr-02 04:00N 56°04' W 156°41'1 0.5 4.7
2016-Apr-02 03:00N 56°04' W 156°41'0 0.2 4.9
2016-Apr-02 02:00N 56°03' W 156°42'0 0.0 5.0
2016-Apr-02 01:00N 56°03' W 156°42'0 0.1 5.2
2016-Apr-01 22:00N 56°04' W 156°41'1 0.2 5.6
2016-Apr-01 18:00N 56°03' W 156°41'0 0.0 5.3
2016-Apr-01 17:00N 56°03' W 156°41'   5.5
Track history (hours):
 
Tides and Currents Weather Stations Pressure Air Temp Water Temp Dewpoint Dewpoint Depression Visibility Wind Speed Wind Dir Waves Ship Positions

Drifting buoy 46533

Last reported at 2016-Apr-11 15:00 UTC. Time now 2016-Aug-30 09:04 UTC.
Position N 56°04' W 156°41'.
Warning: this ship's position is months out of date.

Water temperature 3.8 ° C

Date/timePositionNaut miles runAvg speedWind from/ knotsBaromVisibWave heightAir tempDewpointWater temp
2016-Apr-11 15:00N 56°04' W 156°41'0 0.0 3.8
2016-Apr-11 14:00N 56°04' W 156°41'0 0.0 4.2
2016-Apr-11 13:00N 56°04' W 156°41'0 0.0 4.4
2016-Apr-11 12:00N 56°04' W 156°41'0 0.0 4.1
2016-Apr-11 11:00N 56°04' W 156°41'0 0.0 4.1
2016-Apr-11 06:00N 56°04' W 156°41'0 0.0 4.4
2016-Apr-11 04:00N 56°04' W 156°41'0 0.0 5.5
2016-Apr-11 03:00N 56°04' W 156°41'0 0.0 6.5
2016-Apr-11 02:00N 56°04' W 156°41'0 0.0 7.8
2016-Apr-10 23:00N 56°04' W 156°41'0 0.0 9.0
2016-Apr-10 21:00N 56°04' W 156°41'0 0.0 10.9
2016-Apr-10 17:00N 56°04' W 156°41'0 0.0 3.6
2016-Apr-10 16:00N 56°04' W 156°41'0 0.0 3.3
2016-Apr-10 14:00N 56°04' W 156°41'0 0.0 4.2
2016-Apr-10 12:00N 56°04' W 156°41'0 0.0 4.7
2016-Apr-10 11:00N 56°04' W 156°41'0 0.0 4.2
2016-Apr-10 06:00N 56°04' W 156°41'0 0.0 4.9
2016-Apr-10 05:00N 56°04' W 156°41'0 0.0 5.2
2016-Apr-10 03:00N 56°04' W 156°41'0 0.0 5.6
2016-Apr-10 01:00N 56°04' W 156°41'0 0.0 6.3
2016-Apr-10 00:00N 56°04' W 156°41'0 0.0 6.3
2016-Apr-09 23:00N 56°04' W 156°41'0 0.0 5.6
2016-Apr-09 22:00N 56°04' W 156°41'0 0.0 5.7
2016-Apr-09 13:00N 56°04' W 156°41'0 0.0 5.3
2016-Apr-09 12:00N 56°04' W 156°41'0 0.0 5.6
2016-Apr-09 11:00N 56°04' W 156°41'0 0.0 4.7
2016-Apr-09 06:00N 56°04' W 156°41'0 0.0 4.8
2016-Apr-09 05:00N 56°04' W 156°41'0 0.0 5.3
2016-Apr-09 03:00N 56°04' W 156°41'0 0.0 5.7
2016-Apr-09 01:00N 56°04' W 156°41'0 0.0 6.6
2016-Apr-09 00:00N 56°04' W 156°41'0 0.1 7.5
2016-Apr-08 20:00N 56°04' W 156°41'1 0.1 5.5
2016-Apr-08 15:00N 56°04' W 156°41'0 0.0 4.0
2016-Apr-08 14:00N 56°04' W 156°41'0 0.0 4.2
2016-Apr-08 12:00N 56°04' W 156°41'0 0.0 4.2
2016-Apr-08 07:00N 56°04' W 156°41'0 0.0 5.3
2016-Apr-08 06:00N 56°04' W 156°41'0 0.0 6.1
2016-Apr-08 04:00N 56°04' W 156°41'0 0.0 7.0
2016-Apr-08 03:00N 56°04' W 156°41'0 0.0 7.6
2016-Apr-08 01:00N 56°04' W 156°41'0 0.0 9.5
2016-Apr-08 00:00N 56°04' W 156°41'0 0.0 10.0
2016-Apr-07 23:00N 56°04' W 156°41'0 0.0 15.2
2016-Apr-07 16:00N 56°04' W 156°41'0 0.1 4.3
2016-Apr-07 14:00N 56°04' W 156°41'0 0.0 4.3
2016-Apr-07 12:00N 56°04' W 156°41'0 0.0 5.0
2016-Apr-07 07:00N 56°04' W 156°41'0 0.0 5.9
2016-Apr-07 06:00N 56°04' W 156°41'0 0.0 6.1
2016-Apr-07 03:00N 56°04' W 156°41'0 0.0 7.4
2016-Apr-07 02:00N 56°04' W 156°41'0 0.0 7.8
2016-Apr-07 00:00N 56°04' W 156°41'0 0.0 8.6
2016-Apr-06 23:00N 56°04' W 156°41'0 0.0 8.9
2016-Apr-06 15:00N 56°04' W 156°41'0 0.0 3.0
2016-Apr-06 13:00N 56°04' W 156°41'0 0.0 2.8
2016-Apr-06 06:00N 56°04' W 156°41'0 0.0 4.6
2016-Apr-06 03:00N 56°04' W 156°41'0 0.0 7.4
2016-Apr-06 02:00N 56°04' W 156°41'0 0.0 7.9
2016-Apr-05 19:00N 56°04' W 156°41'0 0.0 5.6
2016-Apr-05 18:00N 56°04' W 156°41'0 0.0 6.1
2016-Apr-05 14:00N 56°04' W 156°41'0 0.0 4.2
2016-Apr-05 11:00N 56°04' W 156°41'0 0.0 4.5
2016-Apr-05 08:00N 56°04' W 156°41'0 0.0 4.9
2016-Apr-05 07:00N 56°04' W 156°41'0 0.0 4.9
2016-Apr-05 05:00N 56°04' W 156°41'0 0.0 5.3
2016-Apr-05 03:00N 56°04' W 156°41'0 0.0 5.8
2016-Apr-05 02:00N 56°04' W 156°41'0 0.0 6.0
2016-Apr-04 18:00N 56°04' W 156°41'0 0.0 4.6
2016-Apr-04 17:00N 56°04' W 156°41'0 0.0 4.5
2016-Apr-04 15:00N 56°04' W 156°41'0 0.0 4.4
2016-Apr-04 14:00N 56°04' W 156°41'0 0.0 4.3
2016-Apr-04 13:00N 56°04' W 156°41'0 0.1 4.6
2016-Apr-04 11:00N 56°04' W 156°41'0 0.0 4.8
2016-Apr-04 05:00N 56°04' W 156°41'0 0.1 5.1
2016-Apr-04 02:00N 56°04' W 156°41'1 0.1 5.3
2016-Apr-03 17:00N 56°03' W 156°40'1 0.3 5.1
2016-Apr-03 15:00N 56°04' W 156°41'0 0.0 5.2
2016-Apr-03 01:00N 56°04' W 156°41'0 0.0 5.8
2016-Apr-02 23:00N 56°04' W 156°41'0 0.4 5.4
2016-Apr-02 22:00N 56°04' W 156°41'0 0.0 5.4
2016-Apr-02 21:00N 56°04' W 156°41'0 0.4 5.2
2016-Apr-02 20:00N 56°04' W 156°41'0 0.0 4.9
2016-Apr-02 15:00N 56°04' W 156°41'1 0.8 4.0
2016-Apr-02 14:00N 56°03' W 156°40'1 0.9 3.8
2016-Apr-02 13:00N 56°04' W 156°41'0 0.0 3.6
2016-Apr-02 04:00N 56°04' W 156°41'1 0.5 4.7
2016-Apr-02 03:00N 56°04' W 156°41'0 0.2 4.9
2016-Apr-02 02:00N 56°03' W 156°42'0 0.0 5.0
2016-Apr-02 01:00N 56°03' W 156°42'0 0.1 5.2
2016-Apr-01 22:00N 56°04' W 156°41'1 0.2 5.6
2016-Apr-01 18:00N 56°03' W 156°41'0 0.0 5.3
2016-Apr-01 17:00N 56°03' W 156°41'   5.5

Dump ship's entire track history